createdAt,value
2023-01-27T00:01:58.352Z,-1.54
2023-01-27T00:03:59.780Z,-1.53
2023-01-27T00:06:01.018Z,-1.52
2023-01-27T00:08:02.364Z,-1.51
2023-01-27T00:10:03.511Z,-1.54
2023-01-27T00:12:04.872Z,-1.54
2023-01-27T00:14:05.922Z,-1.54
2023-01-27T00:16:07.448Z,-1.54
2023-01-27T00:18:09.113Z,-1.52
2023-01-27T00:20:11.272Z,-1.53
2023-01-27T00:22:12.413Z,-1.53
2023-01-27T00:24:13.875Z,-1.5
2023-01-27T00:26:15.493Z,-1.52
2023-01-27T00:28:16.797Z,-1.51
2023-01-27T00:30:18.818Z,-1.51
2023-01-27T00:32:20.024Z,-1.51
2023-01-27T00:34:21.934Z,-1.52
2023-01-27T00:36:23.574Z,-1.55
2023-01-27T00:38:25.080Z,-1.54
2023-01-27T00:40:26.817Z,-1.53
2023-01-27T00:42:28.287Z,-1.53
2023-01-27T00:44:29.612Z,-1.55
2023-01-27T00:46:31.248Z,-1.53
2023-01-27T00:48:32.436Z,-1.54
2023-01-27T00:50:34.035Z,-1.56
2023-01-27T00:52:35.584Z,-1.54
2023-01-27T00:54:37.046Z,-1.56
2023-01-27T00:56:38.148Z,-1.54
2023-01-27T00:58:40.107Z,-1.52
2023-01-27T01:00:41.188Z,-1.54
2023-01-27T01:02:43.109Z,-1.55
2023-01-27T01:04:44.854Z,-1.53
2023-01-27T01:06:46.070Z,-1.5
2023-01-27T01:08:47.387Z,-1.52
2023-01-27T01:10:49.491Z,-1.53
2023-01-27T01:12:50.700Z,-1.53
2023-01-27T01:14:52.330Z,-1.55
2023-01-27T01:16:54.029Z,-1.51
2023-01-27T01:18:55.339Z,-1.52
2023-01-27T01:20:56.515Z,-1.54
2023-01-27T01:22:57.811Z,-1.52
2023-01-27T01:24:58.968Z,-1.49
2023-01-27T01:27:01.045Z,-1.5
2023-01-27T01:29:02.271Z,-1.5
2023-01-27T01:31:03.545Z,-1.53
2023-01-27T01:33:05.419Z,-1.54
2023-01-27T01:35:06.839Z,-1.56
2023-01-27T01:37:08.487Z,-1.54
2023-01-27T01:39:09.626Z,-1.55
2023-01-27T01:43:13.388Z,-1.55
2023-01-27T01:45:14.687Z,-1.54
2023-01-27T01:47:16.734Z,-1.55
2023-01-27T01:49:18.165Z,-1.56
2023-01-27T01:51:19.762Z,-1.55
2023-01-27T01:53:21.402Z,-1.55
2023-01-27T01:55:23.229Z,-1.56
2023-01-27T01:57:25.225Z,-1.55
2023-01-27T01:59:26.559Z,-1.56
2023-01-27T02:01:28.596Z,-1.56
2023-01-27T02:03:30.515Z,-1.56
2023-01-27T02:05:32.446Z,-1.56
2023-01-27T02:07:34.213Z,-1.56
2023-01-27T02:09:35.458Z,-1.56
2023-01-27T02:11:37.472Z,-1.56
2023-01-27T02:13:39.320Z,-1.54
2023-01-27T02:15:41.128Z,-1.51
2023-01-27T02:17:42.583Z,-1.54
2023-01-27T02:19:44.505Z,-1.48
2023-01-27T02:21:47.700Z,-1.51
2023-01-27T02:23:48.385Z,-1.49
2023-01-27T02:25:49.667Z,-1.49
2023-01-27T02:27:51.354Z,-1.47
2023-01-27T02:29:53.027Z,-1.5
2023-01-27T02:31:54.644Z,-1.48
2023-01-27T02:33:56.095Z,-1.5
2023-01-27T02:35:57.212Z,-1.44
2023-01-27T02:37:58.658Z,-1.44
2023-01-27T02:40:00.124Z,-1.43
2023-01-27T02:42:01.382Z,-1.46
2023-01-27T02:44:03.166Z,-1.5
2023-01-27T02:46:04.847Z,-1.43
2023-01-27T02:48:06.530Z,-1.44
2023-01-27T02:50:08.306Z,-1.43
2023-01-27T02:52:10.214Z,-1.41
2023-01-27T02:54:11.300Z,-1.47
2023-01-27T02:56:12.960Z,-1.45
2023-01-27T02:58:14.961Z,-1.47
2023-01-27T03:00:16.448Z,-1.46
2023-01-27T03:02:18.217Z,-1.46
2023-01-27T03:04:19.811Z,-1.49
2023-01-27T03:08:23.038Z,-1.49
2023-01-27T03:10:24.851Z,-1.48
2023-01-27T03:12:26.016Z,-1.52
2023-01-27T03:14:27.159Z,-1.49
2023-01-27T03:16:28.311Z,-1.51
2023-01-27T03:18:29.683Z,-1.51
2023-01-27T03:20:31.043Z,-1.49
2023-01-27T03:22:32.339Z,-1.51
2023-01-27T03:24:33.430Z,-1.49
2023-01-27T03:26:34.796Z,-1.49
2023-01-27T03:28:36.110Z,-1.49
2023-01-27T03:30:37.368Z,-1.52
2023-01-27T03:32:38.506Z,-1.51
2023-01-27T03:34:39.975Z,-1.48
2023-01-27T03:36:41.201Z,-1.47
2023-01-27T03:38:42.833Z,-1.44
2023-01-27T03:40:44.081Z,-1.49
2023-01-27T03:42:45.606Z,-1.47
2023-01-27T03:44:47.671Z,-1.47
2023-01-27T03:46:48.882Z,-1.43
2023-01-27T03:48:50.161Z,-1.44
2023-01-27T03:50:51.488Z,-1.47
2023-01-27T03:52:52.958Z,-1.47
2023-01-27T03:54:54.580Z,-1.47
2023-01-27T03:56:56.212Z,-1.48
2023-01-27T03:58:58.164Z,-1.47
2023-01-27T04:00:59.787Z,-1.48
2023-01-27T04:03:01.243Z,-1.46
2023-01-27T04:05:02.753Z,-1.47
2023-01-27T04:07:03.999Z,-1.45
2023-01-27T04:09:05.212Z,-1.47
2023-01-27T04:11:06.956Z,-1.48
2023-01-27T04:13:08.269Z,-1.48
2023-01-27T04:15:09.596Z,-1.48
2023-01-27T04:17:10.926Z,-1.48
2023-01-27T04:19:12.530Z,-1.48
2023-01-27T04:23:15.704Z,-1.48
2023-01-27T04:25:17.153Z,-1.48
2023-01-27T04:27:18.873Z,-1.44
2023-01-27T04:29:20.271Z,-1.46
2023-01-27T04:31:21.919Z,-1.46
2023-01-27T04:33:23.068Z,-1.49
2023-01-27T04:35:27.830Z,-1.46
2023-01-27T04:37:26.589Z,-1.45
2023-01-27T04:39:28.064Z,-1.47
2023-01-27T04:41:29.804Z,-1.47
2023-01-27T04:43:31.238Z,-1.47
2023-01-27T04:45:32.427Z,-1.49
2023-01-27T04:47:34.230Z,-1.44
2023-01-27T04:49:35.378Z,-1.47
2023-01-27T04:51:36.690Z,-1.46
2023-01-27T04:53:38.420Z,-1.47
2023-01-27T04:55:40.121Z,-1.43
2023-01-27T04:57:41.330Z,-1.47
2023-01-27T05:00:26.508Z,-1.47
2023-01-27T05:02:28.253Z,-1.47
2023-01-27T05:04:29.829Z,-1.47
2023-01-27T05:06:31.176Z,-1.48
2023-01-27T05:08:32.615Z,-1.45
2023-01-27T05:10:34.675Z,-1.48
2023-01-27T05:12:36.616Z,-1.48
2023-01-27T05:14:38.317Z,-1.48
2023-01-27T05:16:39.392Z,-1.48
2023-01-27T05:18:41.062Z,-1.47
2023-01-27T05:20:43.051Z,-1.46
2023-01-27T05:22:44.853Z,-1.48
2023-01-27T05:24:46.570Z,-1.51
2023-01-27T05:26:48.322Z,-1.47
2023-01-27T05:28:49.761Z,-1.47
2023-01-27T05:30:51.391Z,-1.48
2023-01-27T05:32:52.517Z,-1.49
2023-01-27T05:34:54.068Z,-1.47
2023-01-27T05:36:55.826Z,-1.5
2023-01-27T05:38:57.003Z,-1.5
2023-01-27T05:40:58.382Z,-1.49
2023-01-27T05:42:59.933Z,-1.51
2023-01-27T05:45:01.473Z,-1.48
2023-01-27T05:47:03.144Z,-1.47
2023-01-27T05:49:05.037Z,-1.48
2023-01-27T05:51:06.954Z,-1.48
2023-01-27T05:53:08.402Z,-1.5
2023-01-27T05:55:10.256Z,-1.49
2023-01-27T05:57:12.058Z,-1.4
2023-01-27T05:59:13.791Z,-1.46
2023-01-27T06:01:15.248Z,-1.48
2023-01-27T06:03:16.822Z,-1.43
2023-01-27T06:05:17.973Z,-1.47
2023-01-27T06:07:19.061Z,-1.48
2023-01-27T06:09:20.304Z,-1.48
2023-01-27T06:11:22.193Z,-1.47
2023-01-27T06:13:23.805Z,-1.48
2023-01-27T06:15:25.192Z,-1.5
2023-01-27T06:17:26.568Z,-1.49
2023-01-27T06:19:27.706Z,-1.5
2023-01-27T06:21:29.264Z,-1.5
2023-01-27T06:23:30.413Z,-1.5
2023-01-27T06:25:31.789Z,-1.5
2023-01-27T06:27:33.650Z,-1.5
2023-01-27T06:29:35.658Z,-1.5
2023-01-27T06:31:37.074Z,-1.52
2023-01-27T06:33:38.116Z,-1.54
2023-01-27T06:35:40.146Z,-1.51
2023-01-27T06:37:41.374Z,-1.53
2023-01-27T06:39:42.944Z,-1.54
2023-01-27T06:41:44.054Z,-1.52
2023-01-27T06:43:45.293Z,-1.57
2023-01-27T06:45:46.467Z,-1.51
2023-01-27T06:47:47.922Z,-1.5
2023-01-27T06:49:49.139Z,-1.5
2023-01-27T06:51:50.900Z,-1.45
2023-01-27T06:53:52.093Z,-1.49
2023-01-27T06:55:53.786Z,-1.44
2023-01-27T06:57:54.942Z,-1.41
2023-01-27T06:59:56.555Z,-1.4
2023-01-27T07:01:58.496Z,-1.35
2023-01-27T07:03:59.661Z,-1.34
2023-01-27T07:06:00.949Z,-1.32
2023-01-27T07:08:02.919Z,-1.27
2023-01-27T07:10:04.901Z,-1.31
2023-01-27T07:12:06.467Z,-1.32
2023-01-27T07:14:10.429Z,-1.26
2023-01-27T07:16:09.970Z,-1.26
2023-01-27T07:18:11.404Z,-1.31
2023-01-27T07:20:13.019Z,-1.25
2023-01-27T07:24:16.266Z,-1.27
2023-01-27T07:26:24.771Z,-1.28
2023-01-27T07:28:19.835Z,-1.28
2023-01-27T07:30:21.828Z,-1.26
2023-01-27T07:32:24.826Z,-1.25
2023-01-27T07:34:25.339Z,-1.27
2023-01-27T07:36:26.917Z,-1.25
2023-01-27T07:38:28.759Z,-1.24
2023-01-27T07:40:30.431Z,-1.24
2023-01-27T07:42:31.979Z,-1.24
2023-01-27T07:44:33.726Z,-1.2
2023-01-27T07:46:35.107Z,-1.2
2023-01-27T07:48:36.757Z,-1.2
2023-01-27T07:50:38.716Z,-1.2
2023-01-27T07:52:40.545Z,-1.2
2023-01-27T07:54:41.653Z,-1.2
2023-01-27T07:56:43.597Z,-1.17
2023-01-27T07:58:45.529Z,-1.19
2023-01-27T08:00:46.916Z,-1.18
2023-01-27T08:02:48.339Z,-1.16
2023-01-27T08:04:53.159Z,-1.19
2023-01-27T08:06:51.531Z,-1.14
2023-01-27T08:08:52.915Z,-1.12
2023-01-27T08:10:53.947Z,-1.1
2023-01-27T08:12:55.540Z,-1.08
2023-01-27T08:14:57.265Z,-1.1
2023-01-27T08:16:58.703Z,-1.08
2023-01-27T08:18:59.868Z,-1.06
2023-01-27T08:21:01.288Z,-1.05
2023-01-27T08:23:03.195Z,-1.05
2023-01-27T08:25:04.769Z,-1.05
2023-01-27T08:27:08.101Z,-1.08
2023-01-27T08:29:07.410Z,-1.04
2023-01-27T08:31:08.643Z,-0.98
2023-01-27T08:33:09.623Z,-0.99
2023-01-27T08:35:11.009Z,-0.98
2023-01-27T08:37:12.306Z,-0.96
2023-01-27T08:39:13.497Z,-1.02
2023-01-27T08:41:14.640Z,-1
2023-01-27T08:43:16.059Z,-0.95
2023-01-27T08:45:17.772Z,-0.95
2023-01-27T08:47:18.824Z,-0.91
2023-01-27T08:49:20.361Z,-0.92
2023-01-27T08:51:21.480Z,-0.9
2023-01-27T08:53:23.473Z,-0.94
2023-01-27T08:55:25.060Z,-0.88
2023-01-27T08:57:26.924Z,-0.89
2023-01-27T08:59:28.673Z,-0.84
2023-01-27T09:01:30.487Z,-0.86
2023-01-27T09:03:31.649Z,-0.8
2023-01-27T09:05:32.999Z,-0.71
2023-01-27T09:07:34.780Z,-0.63
2023-01-27T09:09:36.555Z,-0.62
2023-01-27T09:11:38.251Z,-0.63
2023-01-27T09:13:39.690Z,-0.7
2023-01-27T09:15:41.012Z,-0.75
2023-01-27T09:17:42.418Z,-0.75
2023-01-27T09:19:43.487Z,-0.73
2023-01-27T09:21:44.718Z,-0.74
2023-01-27T09:23:46.416Z,-0.72
2023-01-27T09:25:48.380Z,-0.77
2023-01-27T09:27:49.425Z,-0.76
2023-01-27T09:29:50.752Z,-0.81
2023-01-27T09:31:52.351Z,-0.78
2023-01-27T09:33:53.890Z,-0.78
2023-01-27T09:35:55.262Z,-0.8
2023-01-27T09:37:56.766Z,-0.72
2023-01-27T09:39:58.163Z,-0.77
2023-01-27T09:41:59.303Z,-0.77
2023-01-27T09:44:01.205Z,-0.68
2023-01-27T09:46:02.894Z,-0.67
2023-01-27T09:48:04.257Z,-0.6
2023-01-27T09:50:05.848Z,-0.52
2023-01-27T09:52:07.372Z,-0.58
2023-01-27T09:54:09.390Z,-0.56
2023-01-27T09:56:12.372Z,-0.51
2023-01-27T09:58:12.522Z,-0.53
2023-01-27T10:00:14.763Z,-0.66
2023-01-27T10:02:15.621Z,-0.49
2023-01-27T10:04:17.253Z,-0.41
2023-01-27T10:06:19.122Z,-0.5
2023-01-27T10:08:20.325Z,-0.47
2023-01-27T10:10:22.186Z,-0.42
2023-01-27T10:12:23.836Z,-0.52
2023-01-27T10:14:25.263Z,-0.52
2023-01-27T10:16:26.774Z,-0.52
2023-01-27T10:18:28.352Z,-0.48
2023-01-27T10:20:29.562Z,-0.49
2023-01-27T10:22:30.999Z,-0.46
2023-01-27T10:24:32.282Z,-0.45
2023-01-27T10:26:33.700Z,-0.41
2023-01-27T10:28:35.009Z,-0.37
2023-01-27T10:30:36.686Z,-0.28
2023-01-27T10:32:38.484Z,-0.31
2023-01-27T10:34:40.508Z,-0.26
2023-01-27T10:36:42.012Z,-0.2
2023-01-27T10:38:43.253Z,-0.27
2023-01-27T10:40:44.836Z,-0.22
2023-01-27T10:42:45.944Z,-0.22
2023-01-27T10:44:47.431Z,-0.28
2023-01-27T10:46:48.941Z,-0.21
2023-01-27T10:48:50.684Z,-0.14
2023-01-27T10:50:51.999Z,-0.11
2023-01-27T10:52:53.168Z,0.01
2023-01-27T10:54:55.060Z,0.01
2023-01-27T10:56:56.218Z,0.11
2023-01-27T10:58:57.947Z,0.17
2023-01-27T11:03:00.186Z,0.27
2023-01-27T11:05:01.235Z,0.47
2023-01-27T11:07:02.993Z,0.45
2023-01-27T11:09:04.331Z,0.34
2023-01-27T11:13:07.287Z,0.21
2023-01-27T11:15:08.630Z,0.42
2023-01-27T11:17:10.444Z,0.34
2023-01-27T11:19:11.475Z,0.23
2023-01-27T11:21:12.564Z,0.2
2023-01-27T11:23:14.579Z,0.19
2023-01-27T11:25:16.540Z,0.31
2023-01-27T11:27:18.133Z,0.32
2023-01-27T11:29:19.980Z,0.32
2023-01-27T11:31:21.597Z,0.28
2023-01-27T11:33:23.225Z,0.37
2023-01-27T11:35:24.877Z,0.48
2023-01-27T11:37:25.949Z,0.4
2023-01-27T11:39:27.515Z,0.45
2023-01-27T11:41:29.316Z,0.31
2023-01-27T11:43:31.132Z,0.36
2023-01-27T11:44:15.028Z,0.36
2023-01-27T11:46:16.428Z,0.33
2023-01-27T11:50:19.490Z,0.43
2023-01-27T11:52:21.488Z,0.37
2023-01-27T11:54:22.913Z,0.47
2023-01-27T11:56:24.154Z,0.5
2023-01-27T11:58:25.485Z,0.63
2023-01-27T12:00:27.086Z,0.77
2023-01-27T12:02:28.196Z,0.72
2023-01-27T12:04:29.381Z,0.77
2023-01-27T12:06:31.077Z,0.8
2023-01-27T12:08:32.522Z,0.78
2023-01-27T12:10:34.009Z,0.78
2023-01-27T12:12:35.694Z,0.83
2023-01-27T12:14:36.863Z,0.77
2023-01-27T12:16:38.247Z,0.73
2023-01-27T12:18:40.176Z,0.77
2023-01-27T12:20:42.089Z,0.9
2023-01-27T12:22:43.508Z,0.95
2023-01-27T12:24:44.813Z,1.01
2023-01-27T12:26:46.221Z,0.98
2023-01-27T12:28:48.095Z,1.01
2023-01-27T12:30:49.448Z,0.76
2023-01-27T12:32:51.200Z,0.74
2023-01-27T12:34:53.031Z,0.83
2023-01-27T12:36:54.497Z,0.81
2023-01-27T12:38:55.810Z,0.78
2023-01-27T12:40:57.280Z,0.85
2023-01-27T12:42:58.561Z,0.78
2023-01-27T12:45:00.101Z,0.76
2023-01-27T12:47:01.939Z,0.84
2023-01-27T12:49:03.020Z,0.87
2023-01-27T12:51:04.824Z,0.85
2023-01-27T12:53:06.316Z,0.75
2023-01-27T12:55:08.151Z,0.75
2023-01-27T12:57:09.572Z,0.8
2023-01-27T12:59:10.850Z,0.79
2023-01-27T13:01:12.058Z,0.88
2023-01-27T13:03:13.903Z,0.88
2023-01-27T13:05:15.342Z,0.98
2023-01-27T13:07:16.856Z,1.07
2023-01-27T13:09:18.616Z,1.04
2023-01-27T13:11:20.352Z,1
2023-01-27T13:13:22.145Z,0.97
2023-01-27T13:15:23.892Z,0.82
2023-01-27T13:17:25.605Z,0.87
2023-01-27T13:19:26.866Z,1.02
2023-01-27T13:21:27.924Z,0.93
2023-01-27T13:23:29.663Z,0.99
2023-01-27T13:25:30.872Z,1.03
2023-01-27T13:27:32.321Z,1.01
2023-01-27T13:29:33.855Z,0.99
2023-01-27T13:31:35.790Z,0.94
2023-01-27T13:33:36.718Z,0.96
2023-01-27T13:35:38.511Z,1.11
2023-01-27T13:37:40.345Z,1.31
2023-01-27T13:39:41.962Z,1.25
2023-01-27T13:41:43.865Z,1.44
2023-01-27T13:43:45.356Z,1.3
2023-01-27T13:45:46.506Z,1.37
2023-01-27T13:47:48.045Z,1.5
2023-01-27T13:49:49.055Z,1.35
2023-01-27T13:51:50.330Z,1.35
2023-01-27T13:53:52.237Z,1.31
2023-01-27T13:55:54.110Z,1.15
2023-01-27T13:57:55.697Z,1.11
2023-01-27T13:59:57.662Z,1.3
2023-01-27T14:01:59.371Z,1.25
2023-01-27T14:04:01.038Z,1.15
2023-01-27T14:06:02.920Z,1.2
2023-01-27T14:08:04.510Z,1.07
2023-01-27T14:10:05.903Z,1.13
2023-01-27T14:12:15.540Z,1.06
2023-01-27T14:14:09.306Z,1.04
2023-01-27T14:16:10.609Z,1.06
2023-01-27T14:18:12.063Z,0.97
2023-01-27T14:20:13.305Z,0.93
2023-01-27T14:22:14.830Z,0.95
2023-01-27T14:24:16.854Z,0.96
2023-01-27T14:26:17.728Z,0.92
2023-01-27T14:28:18.951Z,0.92
2023-01-27T14:30:20.037Z,0.96
2023-01-27T14:32:21.558Z,0.92
2023-01-27T14:34:23.151Z,0.94
2023-01-27T14:36:24.501Z,0.83
2023-01-27T14:38:25.668Z,0.89
2023-01-27T14:40:27.151Z,0.92
2023-01-27T14:42:28.987Z,0.91
2023-01-27T14:44:38.250Z,0.97
2023-01-27T14:46:32.483Z,0.99
2023-01-27T14:48:42.963Z,1.01
2023-01-27T14:50:35.394Z,0.94
2023-01-27T14:52:36.689Z,0.95
2023-01-27T14:54:37.960Z,0.95
2023-01-27T14:56:39.324Z,0.96
2023-01-27T14:58:41.139Z,0.94
2023-01-27T15:00:42.811Z,0.92
2023-01-27T15:02:43.863Z,0.89
2023-01-27T15:04:45.544Z,0.92
2023-01-27T15:06:47.365Z,0.94
2023-01-27T15:08:48.876Z,0.92
2023-01-27T15:10:50.104Z,0.95
2023-01-27T15:12:51.936Z,0.95
2023-01-27T15:14:53.577Z,0.94
2023-01-27T15:16:55.432Z,0.91
2023-01-27T15:18:57.528Z,0.88
2023-01-27T15:20:58.679Z,0.88
2023-01-27T15:23:00.258Z,0.85
2023-01-27T15:25:01.394Z,0.82
2023-01-27T15:27:03.450Z,0.83
2023-01-27T15:29:05.512Z,0.86
2023-01-27T15:31:06.878Z,0.83
2023-01-27T15:33:08.630Z,0.8
2023-01-27T15:35:10.121Z,0.78
2023-01-27T15:37:11.621Z,0.79
2023-01-27T15:39:13.370Z,0.81
2023-01-27T15:41:14.973Z,0.78
2023-01-27T15:43:16.173Z,0.8
2023-01-27T15:45:17.643Z,0.8
2023-01-27T15:47:19.176Z,0.75
2023-01-27T15:49:20.265Z,0.75
2023-01-27T15:51:21.937Z,0.75
2023-01-27T15:53:23.328Z,0.74
2023-01-27T15:55:25.234Z,0.73
2023-01-27T15:57:26.508Z,0.74
2023-01-27T15:59:28.389Z,0.72
2023-01-27T16:01:29.424Z,0.71
2023-01-27T16:03:31.198Z,0.71
2023-01-27T16:05:33.196Z,0.72
2023-01-27T16:07:34.902Z,0.67
2023-01-27T16:09:36.895Z,0.67
2023-01-27T16:11:38.456Z,0.64
2023-01-27T16:13:39.753Z,0.61
2023-01-27T16:15:41.396Z,0.63
2023-01-27T16:17:42.779Z,0.59
2023-01-27T16:19:44.214Z,0.64
2023-01-27T16:21:46.142Z,0.69
2023-01-27T16:23:47.491Z,0.71
2023-01-27T16:25:49.475Z,0.68
2023-01-27T16:27:50.812Z,0.67
2023-01-27T16:29:52.775Z,0.73
2023-01-27T16:31:54.793Z,0.72
2023-01-27T16:33:56.177Z,0.68
2023-01-27T16:35:57.972Z,0.69
2023-01-27T16:37:59.213Z,0.66
2023-01-27T16:40:00.457Z,0.67
2023-01-27T16:42:02.400Z,0.72
2023-01-27T16:44:04.402Z,0.76
2023-01-27T16:46:05.533Z,0.78
2023-01-27T16:48:07.129Z,0.81
2023-01-27T16:50:08.559Z,0.83
2023-01-27T16:52:09.915Z,0.83
2023-01-27T16:54:11.181Z,0.8
2023-01-27T16:56:12.581Z,0.79
2023-01-27T16:58:13.679Z,0.82
2023-01-27T17:00:15.628Z,0.84
2023-01-27T17:04:20.276Z,0.85
2023-01-27T17:06:20.253Z,0.82
2023-01-27T17:08:21.801Z,0.81
2023-01-27T17:10:34.194Z,0.88
2023-01-27T17:12:24.435Z,0.9
2023-01-27T17:14:30.619Z,0.92
2023-01-27T17:16:27.412Z,0.87
2023-01-27T17:18:30.048Z,0.91
2023-01-27T17:20:29.893Z,0.92
2023-01-27T17:22:31.619Z,0.88
2023-01-27T17:24:32.756Z,0.95
2023-01-27T17:26:34.159Z,0.91
2023-01-27T17:28:36.083Z,0.94
2023-01-27T17:30:37.595Z,0.93
2023-01-27T17:32:39.011Z,0.92
2023-01-27T17:34:40.989Z,0.88
2023-01-27T17:36:42.187Z,0.94
2023-01-27T17:38:43.635Z,0.9
2023-01-27T17:40:45.369Z,0.94
2023-01-27T17:42:46.403Z,0.92
2023-01-27T17:44:48.495Z,0.87
2023-01-27T17:46:49.655Z,0.88
2023-01-27T17:48:51.033Z,0.87
2023-01-27T17:50:52.191Z,0.83
2023-01-27T17:52:53.760Z,0.83
2023-01-27T17:54:55.505Z,0.85
2023-01-27T17:56:56.794Z,0.83
2023-01-27T17:58:58.443Z,0.82
2023-01-27T18:01:00.302Z,0.87
2023-01-27T18:03:02.127Z,0.84
2023-01-27T18:05:03.268Z,0.83
2023-01-27T18:07:04.710Z,0.8
2023-01-27T18:09:05.750Z,0.77
2023-01-27T18:11:06.873Z,0.72
2023-01-27T18:13:08.204Z,0.67
2023-01-27T18:15:09.827Z,0.56
2023-01-27T18:17:11.324Z,0.58
2023-01-27T18:19:12.481Z,0.59
2023-01-27T18:21:13.649Z,0.53
2023-01-27T18:23:14.942Z,0.49
2023-01-27T18:25:16.723Z,0.4
2023-01-27T18:27:18.574Z,0.38
2023-01-27T18:29:19.766Z,0.37
2023-01-27T18:30:03.711Z,0.34
2023-01-27T18:32:04.789Z,0.32
2023-01-27T18:34:06.206Z,0.31
2023-01-27T18:36:07.716Z,0.23
2023-01-27T18:38:09.338Z,0.2
2023-01-27T18:40:10.980Z,0.1
2023-01-27T18:42:12.111Z,0.09
2023-01-27T18:44:14.156Z,0.03
2023-01-27T18:46:15.698Z,0.04
2023-01-27T18:48:17.481Z,0
2023-01-27T18:50:18.963Z,0.04
2023-01-27T18:52:20.950Z,0.05
2023-01-27T18:54:22.843Z,0.09
2023-01-27T18:56:24.593Z,0.04
2023-01-27T18:58:25.910Z,0.02
2023-01-27T19:00:27.424Z,0
2023-01-27T19:02:28.920Z,-0.02
2023-01-27T19:04:30.616Z,0
2023-01-27T19:06:32.565Z,0.01
2023-01-27T19:08:34.610Z,0
2023-01-27T19:10:36.511Z,-0.06
2023-01-27T19:12:37.689Z,-0.01
2023-01-27T19:14:39.693Z,-0.05
2023-01-27T19:16:40.823Z,-0.02
2023-01-27T19:18:42.539Z,0.03
2023-01-27T19:20:43.790Z,0.02
2023-01-27T19:22:45.182Z,0.03
2023-01-27T19:24:46.335Z,0.06
2023-01-27T19:26:48.117Z,-0.01
2023-01-27T19:28:50.056Z,-0.05
2023-01-27T19:30:51.816Z,-0.05
2023-01-27T19:32:53.518Z,-0.14
2023-01-27T19:34:54.790Z,-0.05
2023-01-27T19:36:56.420Z,-0.13
2023-01-27T19:38:58.143Z,-0.21
2023-01-27T19:41:00.097Z,-0.18
2023-01-27T19:43:01.419Z,-0.23
2023-01-27T19:45:03.077Z,-0.17
2023-01-27T19:47:04.545Z,-0.11
2023-01-27T19:49:05.793Z,0.01
2023-01-27T19:51:07.412Z,-0.05
2023-01-27T19:53:09.070Z,-0.06
2023-01-27T19:55:10.686Z,-0.05
2023-01-27T19:57:12.368Z,0.02
2023-01-27T19:59:13.831Z,0.08
2023-01-27T20:01:15.089Z,0.02
2023-01-27T20:03:16.127Z,-0.01
2023-01-27T20:05:17.932Z,-0.02
2023-01-27T20:07:19.765Z,-0.05
2023-01-27T20:09:21.641Z,-0.12
2023-01-27T20:11:22.767Z,0.01
2023-01-27T20:13:24.329Z,0.02
2023-01-27T20:15:25.754Z,-0.04
2023-01-27T20:17:26.865Z,-0.09
2023-01-27T20:19:28.854Z,-0.15
2023-01-27T20:21:30.073Z,-0.1
2023-01-27T20:23:31.899Z,-0.07
2023-01-27T20:25:33.801Z,-0.08
2023-01-27T20:27:35.156Z,-0.06
2023-01-27T20:29:36.799Z,-0.04
2023-01-27T20:31:38.421Z,0.04
2023-01-27T20:33:39.672Z,-0.02
2023-01-27T20:35:41.212Z,-0.02
2023-01-27T20:37:42.620Z,-0.03
2023-01-27T20:39:44.151Z,-0.11
2023-01-27T20:41:45.738Z,-0.13
2023-01-27T20:43:47.671Z,-0.13
2023-01-27T20:47:50.222Z,-0.06
2023-01-27T20:49:51.958Z,0.1
2023-01-27T20:51:53.639Z,0.11
2023-01-27T20:53:55.163Z,0.13
2023-01-27T20:55:56.475Z,0.21
2023-01-27T20:57:58.316Z,0.26
2023-01-27T21:00:00.268Z,0.26
2023-01-27T21:02:01.826Z,0.3
2023-01-27T21:04:03.400Z,0.3
2023-01-27T21:06:05.366Z,0.24
2023-01-27T21:08:07.382Z,0.25
2023-01-27T21:10:09.172Z,0.22
2023-01-27T21:12:10.856Z,0.13
2023-01-27T21:14:12.698Z,0.06
2023-01-27T21:16:14.766Z,0.08
2023-01-27T21:18:16.008Z,0.12
2023-01-27T21:20:18.020Z,0.06
2023-01-27T21:22:19.734Z,0.04
2023-01-27T21:24:21.174Z,0.04
2023-01-27T21:26:22.624Z,0.06
2023-01-27T21:28:24.104Z,0.21
2023-01-27T21:30:25.708Z,0.27
2023-01-27T21:32:27.186Z,0.31
2023-01-27T21:34:28.724Z,0.3
2023-01-27T21:36:30.545Z,0.3
2023-01-27T21:38:31.736Z,0.31
2023-01-27T21:40:33.268Z,0.31
2023-01-27T21:42:34.827Z,0.3
2023-01-27T21:44:36.029Z,0.33
2023-01-27T21:46:39.645Z,0.36
2023-01-27T21:48:39.646Z,0.36
2023-01-27T21:50:41.409Z,0.36
2023-01-27T21:52:43.054Z,0.34
2023-01-27T21:54:44.208Z,0.33
2023-01-27T21:56:45.629Z,0.32
2023-01-27T21:58:47.345Z,0.36
2023-01-27T22:00:49.269Z,0.39
2023-01-27T22:02:51.083Z,0.39
2023-01-27T22:04:52.731Z,0.41
2023-01-27T22:06:54.111Z,0.49
2023-01-27T22:08:56.035Z,0.42
2023-01-27T22:10:57.633Z,0.5
2023-01-27T22:12:59.113Z,0.47
2023-01-27T22:15:00.305Z,0.5
2023-01-27T22:17:02.102Z,0.54
2023-01-27T22:19:03.224Z,0.55
2023-01-27T22:21:04.236Z,0.55
2023-01-27T22:23:06.228Z,0.53
2023-01-27T22:25:07.357Z,0.48
2023-01-27T22:27:08.541Z,0.44
2023-01-27T22:29:09.925Z,0.47
2023-01-27T22:31:11.124Z,0.45
2023-01-27T22:33:12.753Z,0.42
2023-01-27T22:35:14.190Z,0.42
2023-01-27T22:37:15.065Z,0.44
2023-01-27T22:39:16.957Z,0.46
2023-01-27T22:41:18.287Z,0.54
2023-01-27T22:45:21.110Z,0.6
2023-01-27T22:47:23.165Z,0.57
2023-01-27T22:49:24.132Z,0.57
2023-01-27T22:51:26.079Z,0.58
2023-01-27T22:53:27.189Z,0.56
2023-01-27T22:55:28.585Z,0.57
2023-01-27T22:57:29.923Z,0.53
2023-01-27T22:59:31.294Z,0.53
2023-01-27T23:01:32.475Z,0.5
2023-01-27T23:03:34.132Z,0.48
2023-01-27T23:05:35.885Z,0.46
2023-01-27T23:07:37.595Z,0.4
2023-01-27T23:09:39.472Z,0.35
2023-01-27T23:11:40.889Z,0.31
2023-01-27T23:13:42.597Z,0.29
2023-01-27T23:15:44.236Z,0.27
2023-01-27T23:17:45.964Z,0.28
2023-01-27T23:19:47.195Z,0.32
2023-01-27T23:21:49.259Z,0.33
2023-01-27T23:23:51.087Z,0.37
2023-01-27T23:27:53.278Z,0.32
2023-01-27T23:29:54.669Z,0.3
2023-01-27T23:31:56.352Z,0.35
2023-01-27T23:33:57.718Z,0.37
2023-01-27T23:35:59.636Z,0.49
2023-01-27T23:38:00.958Z,0.46
2023-01-27T23:40:02.954Z,0.47
2023-01-27T23:42:04.259Z,0.45
2023-01-27T23:44:05.377Z,0.41
2023-01-27T23:46:07.163Z,0.44
2023-01-27T23:48:08.875Z,0.47
2023-01-27T23:50:10.772Z,0.45
2023-01-27T23:52:12.476Z,0.44
2023-01-27T23:54:13.841Z,0.42
2023-01-27T23:56:15.096Z,0.43
2023-01-27T23:58:16.419Z,0.4
